Time;durP1;ratioP1;P1;durP2;ratioP2;P2;SDS_P1;SDS_P2;PMS_P1;PMS_P2;Temp;Humidity;BMP_temperature;BMP_pressure;BME280_temperature;BME280_humidity;BME280_pressure;Samples;Min_cycle;Max_cycle;Signal;HPM_P1;HPM_P2
2021/06/08 00:01:24;;;;;;;7.00;2.80;;;;;;;17.05;75.52;99021.26;1675758;85;21011;-67
2021/06/08 00:03:51;;;;;;;3.40;2.80;;;;;;;17.14;75.25;99029.86;1676107;85;21869;-65
2021/06/08 00:06:17;;;;;;;3.47;3.00;;;;;;;17.14;74.99;99022.62;1675916;85;20968;-65
2021/06/08 00:08:43;;;;;;;5.20;2.87;;;;;;;17.17;74.75;99016.81;1675672;85;20967;-65
2021/06/08 00:11:10;;;;;;;3.30;3.00;;;;;;;17.16;74.57;99020.53;1656374;84;21094;-65
2021/06/08 00:13:36;;;;;;;3.35;2.52;;;;;;;17.11;74.54;99015.00;1675954;85;21034;-65
2021/06/08 00:16:04;;;;;;;3.52;2.90;;;;;;;17.09;74.77;99010.89;1675911;85;21887;-65
2021/06/08 00:18:30;;;;;;;4.37;3.98;;;;;;;17.04;75.10;99008.89;1675997;85;20955;-65
2021/06/08 00:20:56;;;;;;;9.83;4.50;;;;;;;17.00;75.25;99006.84;1675707;85;21545;-65
2021/06/08 00:23:23;;;;;;;6.92;4.37;;;;;;;16.95;75.15;99013.41;1677139;85;21035;-65
2021/06/08 00:25:49;;;;;;;5.80;4.37;;;;;;;16.91;75.06;99008.19;1662347;83;21494;-65
2021/06/08 00:28:16;;;;;;;8.20;4.33;;;;;;;16.89;75.00;99009.77;1674711;85;21171;-65
2021/06/08 00:30:42;;;;;;;4.70;4.17;;;;;;;16.92;74.96;99011.19;1677723;85;21089;-65
2021/06/08 00:33:08;;;;;;;5.67;3.98;;;;;;;16.95;75.12;99002.66;1678296;85;21051;-65
2021/06/08 00:35:35;;;;;;;5.58;4.17;;;;;;;17.04;75.14;99003.52;1677936;85;21019;-65
2021/06/08 00:38:01;;;;;;;5.92;4.50;;;;;;;17.07;75.02;99007.10;1692344;83;21452;-65
2021/06/08 00:40:28;;;;;;;5.03;4.35;;;;;;;17.07;75.06;99004.41;1736379;81;21975;-65
2021/06/08 00:42:55;;;;;;;7.45;4.67;;;;;;;17.05;75.30;99001.10;1730434;83;21009;-65
2021/06/08 00:45:21;;;;;;;8.28;5.75;;;;;;;17.15;75.15;98997.92;1693068;84;20950;-65
2021/06/08 00:47:48;;;;;;;10.65;4.78;;;;;;;17.22;74.79;98999.48;1678010;85;21536;-65
2021/06/08 00:50:15;;;;;;;6.08;4.80;;;;;;;17.21;74.33;98997.83;1663004;85;21454;-65
2021/06/08 00:52:41;;;;;;;7.87;4.25;;;;;;;17.21;74.51;99001.86;1676244;85;21236;-65
2021/06/08 00:55:10;;;;;;;8.68;4.42;;;;;;;17.23;74.39;99001.11;1677877;85;20963;-65
2021/06/08 00:57:38;;;;;;;6.80;5.12;;;;;;;17.19;73.99;99000.45;1730869;83;20946;-66
2021/06/08 01:00:07;;;;;;;7.90;4.35;;;;;;;17.17;74.10;98999.34;1729923;82;21438;-65
2021/06/08 01:02:34;;;;;;;5.25;4.72;;;;;;;17.26;73.93;98994.46;1730355;83;20922;-66
2021/06/08 01:05:03;;;;;;;7.28;4.70;;;;;;;17.34;73.64;98992.81;1729904;83;21149;-65
2021/06/08 01:07:32;;;;;;;6.72;4.45;;;;;;;17.40;73.38;98991.92;1730183;83;21540;-66
2021/06/08 01:09:58;;;;;;;6.33;4.47;;;;;;;17.46;73.11;98996.41;1731041;82;20937;-66
2021/06/08 01:12:26;;;;;;;8.80;5.22;;;;;;;17.50;72.85;98996.76;1730620;83;21007;-66
2021/06/08 01:14:52;;;;;;;8.18;5.37;;;;;;;17.46;72.75;98999.62;1730407;83;21018;-65
2021/06/08 01:17:19;;;;;;;5.95;5.08;;;;;;;17.43;72.88;98999.55;1730067;83;21793;-65
2021/06/08 01:19:48;;;;;;;8.65;5.10;;;;;;;17.44;72.54;99002.52;1714178;81;20926;-66
2021/06/08 01:22:15;;;;;;;6.40;4.95;;;;;;;17.37;72.59;98993.72;1730637;83;20956;-65
2021/06/08 01:24:44;;;;;;;7.62;4.97;;;;;;;17.41;72.41;98994.09;1693162;84;21587;-65
2021/06/08 01:27:10;;;;;;;8.48;5.00;;;;;;;17.47;72.19;98999.92;1637711;85;21529;-65
2021/06/08 01:29:37;;;;;;;10.90;4.55;;;;;;;17.50;72.11;99000.27;1670269;85;21133;-65
2021/06/08 01:32:04;;;;;;;6.55;4.80;;;;;;;17.52;71.92;98990.66;1644981;85;21589;-65
2021/06/08 01:34:30;;;;;;;5.90;4.65;;;;;;;17.58;71.67;98999.17;1663021;85;21471;-66
2021/06/08 01:36:56;;;;;;;5.70;4.92;;;;;;;17.63;71.50;98999.31;1677479;85;21023;-66
2021/06/08 01:39:23;;;;;;;11.12;5.80;;;;;;;17.64;71.26;98997.76;1678168;85;21130;-66
2021/06/08 01:41:49;;;;;;;6.53;4.80;;;;;;;17.61;71.11;99005.45;1677616;85;21203;-66
2021/06/08 01:44:16;;;;;;;6.92;4.58;;;;;;;17.58;71.11;99001.86;1681037;83;21615;-66
2021/06/08 01:46:42;;;;;;;7.92;5.15;;;;;;;17.54;71.04;99005.55;1678060;85;20954;-66
2021/06/08 01:49:09;;;;;;;6.87;4.78;;;;;;;17.51;70.90;98997.89;1730528;83;21006;-66
2021/06/08 01:52:08;;;;;;;5.80;4.70;;;;;;;17.55;70.80;98998.27;1715471;83;21062;-66
2021/06/08 01:55:06;;;;;;;8.85;4.70;;;;;;;17.50;70.64;99000.79;1730600;83;21164;-66
2021/06/08 01:57:44;;;;;;;7.30;4.80;;;;;;;17.48;70.72;99005.06;1728723;81;21436;-66
2021/06/08 02:00:23;;;;;;;6.70;4.60;;;;;;;17.42;70.49;99003.78;1704500;81;21009;-65
2021/06/08 02:02:57;;;;;;;7.47;4.53;;;;;;;17.33;70.69;99001.12;1716030;81;20958;-66
2021/06/08 02:05:50;;;;;;;5.75;4.80;;;;;;;17.30;70.88;99002.39;1701411;81;21052;-66
2021/06/08 02:08:48;;;;;;;6.08;4.60;;;;;;;17.32;71.06;99005.67;1704298;81;21146;-65
2021/06/08 02:11:36;;;;;;;8.98;5.05;;;;;;;17.29;70.99;99003.42;1701115;81;21008;-65
2021/06/08 02:14:08;;;;;;;7.25;4.80;;;;;;;17.33;71.03;99002.47;1701430;81;21025;-67
2021/06/08 02:16:46;;;;;;;5.15;4.65;;;;;;;17.37;70.98;99000.95;1701593;81;21063;-67
2021/06/08 02:19:13;;;;;;;5.37;4.58;;;;;;;17.40;70.77;99003.20;1704199;81;21001;-65
2021/06/08 02:21:41;;;;;;;7.60;4.50;;;;;;;17.46;70.58;99000.96;1706892;81;21157;-65
2021/06/08 02:24:09;;;;;;;5.65;4.75;;;;;;;17.48;70.37;98997.52;1686389;82;21021;-65
2021/06/08 02:26:37;;;;;;;7.58;4.25;;;;;;;17.50;70.17;98994.90;1676904;83;21026;-65
2021/06/08 02:29:04;;;;;;;6.30;5.00;;;;;;;17.55;69.98;98997.76;1657483;85;21025;-65
2021/06/08 02:31:30;;;;;;;7.85;4.83;;;;;;;17.60;69.82;99005.14;1685771;83;21001;-66
2021/06/08 02:33:56;;;;;;;8.23;4.47;;;;;;;17.60;69.78;99008.66;1687109;85;21788;-65
2021/06/08 02:36:23;;;;;;;6.72;5.00;;;;;;;17.59;69.89;99006.20;1687252;85;21052;-65
2021/06/08 02:38:49;;;;;;;6.17;5.28;;;;;;;17.61;69.86;99006.28;1628119;88;21094;-65
2021/06/08 02:41:15;;;;;;;8.13;5.50;;;;;;;17.65;69.67;99013.38;1627299;88;21189;-65
2021/06/08 02:43:43;;;;;;;5.87;5.20;;;;;;;17.69;69.58;99008.66;1602374;88;20915;-65
2021/06/08 02:46:09;;;;;;;8.88;5.33;;;;;;;17.74;69.44;99010.14;1623738;87;22109;-65
2021/06/08 02:48:36;;;;;;;8.23;5.58;;;;;;;17.79;69.24;99016.17;1657846;86;20988;-65
2021/06/08 02:51:03;;;;;;;6.58;4.65;;;;;;;17.83;69.24;99018.17;1656242;86;20914;-65
2021/06/08 02:53:30;;;;;;;5.30;4.80;;;;;;;17.87;69.25;99022.07;1656518;86;21106;-65
2021/06/08 02:55:56;;;;;;;6.60;4.33;;;;;;;17.94;68.90;99021.17;1656572;86;20997;-65
2021/06/08 02:58:22;;;;;;;5.03;4.50;;;;;;;17.99;68.58;99022.09;1608261;86;21183;-65
2021/06/08 03:00:49;;;;;;;6.05;4.28;;;;;;;18.04;68.45;99022.23;1627064;88;21007;-65
2021/06/08 03:03:22;;;;;;;4.47;3.90;;;;;;;18.09;68.21;99028.30;1628205;88;20926;-65
2021/06/08 03:05:55;;;;;;;5.03;4.50;;;;;;;18.17;68.06;99030.11;1628467;88;21003;-65
2021/06/08 03:08:27;;;;;;;5.45;4.15;;;;;;;18.25;67.77;99034.38;1628143;86;20987;-65
2021/06/08 03:10:53;;;;;;;6.97;3.83;;;;;;;18.35;67.51;99031.39;1625617;86;21129;-65
2021/06/08 03:13:19;;;;;;;4.67;3.92;;;;;;;18.47;67.17;99031.45;1628091;88;21553;-65
2021/06/08 03:15:51;;;;;;;5.15;4.37;;;;;;;18.61;66.94;99032.07;1628082;88;21006;-65
2021/06/08 03:18:21;;;;;;;6.05;4.40;;;;;;;18.79;66.65;99029.27;1628007;88;21050;-65
2021/06/08 03:20:55;;;;;;;6.40;4.58;;;;;;;19.04;65.91;99032.02;1627526;88;21086;-66
2021/06/08 03:23:22;;;;;;;4.28;3.87;;;;;;;19.31;65.05;99028.31;1632986;85;21154;-66
2021/06/08 03:25:48;;;;;;;4.47;3.65;;;;;;;19.55;64.29;99035.30;1677992;85;20996;-66
2021/06/08 03:28:18;;;;;;;6.90;4.08;;;;;;;19.75;63.75;99038.96;1678055;85;21505;-66
2021/06/08 03:30:44;;;;;;;5.58;4.10;;;;;;;19.96;63.11;99037.47;1669680;85;20930;-66
2021/06/08 03:33:11;;;;;;;5.47;4.37;;;;;;;20.11;62.32;99041.80;1667132;85;21489;-66
2021/06/08 03:35:37;;;;;;;11.20;10.00;;;;;;;20.27;61.77;99045.94;1677997;85;21590;-66
2021/06/08 03:38:04;;;;;;;9.23;8.33;;;;;;;20.39;61.19;99055.86;1679588;84;21027;-66
2021/06/08 03:40:31;;;;;;;6.03;5.40;;;;;;;20.56;60.81;99053.46;1677246;85;21096;-66
2021/06/08 03:42:57;;;;;;;5.72;4.40;;;;;;;20.79;60.52;99049.77;1649928;87;20999;-65
2021/06/08 03:45:23;;;;;;;4.92;4.03;;;;;;;21.00;59.93;99060.36;1678105;85;21079;-65
2021/06/08 03:47:53;;;;;;;6.10;5.20;;;;;;;21.25;59.45;99056.17;1676939;85;21169;-67
2021/06/08 03:50:20;;;;;;;5.97;5.10;;;;;;;21.56;58.60;99058.78;1648941;85;21516;-71
2021/06/08 03:52:55;;;;;;;6.72;4.65;;;;;;;21.84;57.75;99053.70;1676874;85;21027;-65
2021/06/08 03:55:21;;;;;;;10.05;5.50;;;;;;;22.12;57.20;99054.86;1661119;84;21512;-64
2021/06/08 03:57:51;;;;;;;4.95;4.47;;;;;;;22.37;56.03;99055.66;1658973;84;21537;-64
2021/06/08 04:00:17;;;;;;;5.78;4.70;;;;;;;22.59;55.22;99055.86;1653822;84;21286;-64
2021/06/08 04:02:44;;;;;;;6.00;4.53;;;;;;;22.89;54.63;99056.66;1666725;85;21015;-63
2021/06/08 04:05:13;;;;;;;6.70;4.78;;;;;;;23.21;53.79;99053.38;1651554;84;21573;-62
2021/06/08 04:07:42;;;;;;;4.72;4.33;;;;;;;23.50;53.07;99057.91;1680875;84;21015;-61
2021/06/08 04:10:09;;;;;;;4.25;3.90;;;;;;;23.68;51.96;99057.98;1666277;84;21019;-61
2021/06/08 04:12:36;;;;;;;4.20;3.80;;;;;;;23.91;51.28;99060.25;1647872;84;21130;-62
2021/06/08 04:15:05;;;;;;;4.28;3.77;;;;;;;24.20;50.55;99057.38;1640752;85;21312;-60
2021/06/08 04:17:32;;;;;;;5.45;3.80;;;;;;;24.45;49.82;99055.27;1650904;84;20988;-60
2021/06/08 04:20:00;;;;;;;3.67;3.33;;;;;;;24.76;49.10;99055.55;1660438;84;21505;-63
2021/06/08 04:22:31;;;;;;;4.85;4.45;;;;;;;25.20;48.36;99059.06;1661074;84;21627;-62
2021/06/08 04:24:57;;;;;;;4.55;4.15;;;;;;;25.64;47.10;99058.16;1663203;83;21157;-60
2021/06/08 04:27:25;;;;;;;5.87;5.28;;;;;;;26.04;46.05;99054.99;1671166;83;21017;-58
2021/06/08 04:29:52;;;;;;;8.33;6.00;;;;;;;26.42;45.18;99052.05;1682222;83;21007;-64
2021/06/08 04:32:19;;;;;;;5.70;5.22;;;;;;;26.77;44.51;99051.28;1694405;83;21010;-58
2021/06/08 04:34:53;;;;;;;4.87;4.47;;;;;;;27.11;43.92;99045.80;1716193;83;21046;-65
2021/06/08 04:37:20;;;;;;;5.08;4.67;;;;;;;27.44;43.08;99050.92;1714530;83;21131;-63
2021/06/08 04:39:47;;;;;;;5.90;5.25;;;;;;;27.69;42.23;99056.09;1657843;86;21905;-64
2021/06/08 04:42:14;;;;;;;5.55;5.05;;;;;;;28.03;41.55;99047.20;1686902;85;20949;-66
2021/06/08 04:44:44;;;;;;;5.92;5.42;;;;;;;28.66;40.36;99053.14;1686162;85;21003;-68
2021/06/08 04:47:11;;;;;;;5.97;5.47;;;;;;;29.40;39.05;99051.33;1657149;86;21041;-73
2021/06/08 04:49:39;;;;;;;5.22;4.72;;;;;;;30.14;37.56;99054.19;1686470;85;21128;-67
2021/06/08 04:52:06;;;;;;;4.75;4.30;;;;;;;30.87;35.98;99047.57;1657791;85;21026;-63
2021/06/08 04:54:33;;;;;;;4.90;4.50;;;;;;;31.38;35.01;99043.76;1686036;85;20888;-61
2021/06/08 04:57:00;;;;;;;5.85;5.28;;;;;;;31.85;34.23;99043.55;1659222;85;21574;-60
2021/06/08 04:59:43;;;;;;;6.58;5.97;;;;;;;32.51;33.29;99042.93;1684914;85;21845;-59
2021/06/08 05:02:14;;;;;;;5.00;4.60;;;;;;;33.20;32.29;99038.97;1674405;85;21575;-60
2021/06/08 05:04:40;;;;;;;5.03;4.53;;;;;;;33.88;31.20;99041.20;1716127;83;21558;-61
2021/06/08 05:07:09;;;;;;;5.67;4.50;;;;;;;34.45;30.28;99035.39;1716257;83;20989;-63
2021/06/08 05:09:40;;;;;;;4.37;4.03;;;;;;;34.98;29.47;99042.08;1716805;83;20938;-62
2021/06/08 05:12:09;;;;;;;4.55;3.83;;;;;;;35.31;28.66;99035.95;1716305;83;20967;-64
2021/06/08 05:14:36;;;;;;;5.45;3.80;;;;;;;35.73;28.03;99037.40;1715887;83;21094;-63
2021/06/08 05:17:02;;;;;;;5.62;4.00;;;;;;;36.17;27.40;99037.02;1702347;83;20890;-61
2021/06/08 05:19:29;;;;;;;5.55;3.90;;;;;;;36.57;26.87;99044.56;1716326;83;20978;-60
2021/06/08 05:21:56;;;;;;;7.80;4.72;;;;;;;36.86;26.54;99042.25;1715940;83;21480;-61
2021/06/08 05:24:23;;;;;;;7.47;5.85;;;;;;;37.09;25.98;99032.80;1720072;82;20919;-62
2021/06/08 05:26:51;;;;;;;7.92;5.05;;;;;;;37.37;25.78;99038.27;1730888;83;21103;-61
2021/06/08 05:29:20;;;;;;;4.30;3.62;;;;;;;37.68;25.31;99044.64;1730646;83;20898;-61
2021/06/08 05:31:47;;;;;;;4.37;3.27;;;;;;;37.72;24.92;99030.86;1706346;83;21614;-61
2021/06/08 05:34:14;;;;;;;6.10;3.80;;;;;;;37.87;24.80;99032.02;1730469;83;21018;-61
2021/06/08 05:36:41;;;;;;;6.53;2.98;;;;;;;38.18;24.47;99029.98;1730904;83;21053;-61
2021/06/08 05:39:08;;;;;;;3.92;3.55;;;;;;;38.44;24.06;99029.95;1709911;81;21217;-61
2021/06/08 05:41:35;;;;;;;5.12;3.65;;;;;;;38.62;23.55;99031.12;1730924;83;21001;-61
2021/06/08 05:44:02;;;;;;;5.62;3.67;;;;;;;38.67;23.46;99032.20;1730549;83;21028;-61
2021/06/08 05:46:32;;;;;;;12.53;4.60;;;;;;;38.64;23.65;99030.97;1730594;82;21124;-61
2021/06/08 05:48:57;;;;;;;4.60;4.20;;;;;;;38.77;23.44;99032.45;1730376;83;21033;-61
2021/06/08 05:51:23;;;;;;;5.75;4.25;;;;;;;38.85;23.36;99032.81;1730501;82;21216;-61
2021/06/08 05:53:50;;;;;;;9.23;4.03;;;;;;;39.05;23.31;99031.40;1730670;83;21071;-61
2021/06/08 05:56:16;;;;;;;7.72;4.10;;;;;;;39.29;22.91;99030.47;1730726;83;21507;-61
2021/06/08 05:58:43;;;;;;;8.30;3.87;;;;;;;39.32;22.71;99035.88;1730892;83;21018;-61
2021/06/08 06:01:10;;;;;;;5.45;3.85;;;;;;;39.25;23.00;99038.55;1730650;83;20997;-61
2021/06/08 06:03:37;;;;;;;5.97;3.62;;;;;;;38.86;23.28;99039.98;1730917;83;21099;-61
2021/06/08 06:06:04;;;;;;;6.55;4.45;;;;;;;38.22;23.80;99042.56;1730642;83;20922;-61
2021/06/08 06:08:31;;;;;;;9.55;4.00;;;;;;;37.45;24.54;99043.67;1730900;83;21020;-61
2021/06/08 06:10:59;;;;;;;5.25;3.77;;;;;;;36.88;25.32;99047.42;1730489;83;20910;-62
2021/06/08 06:13:28;;;;;;;6.67;4.20;;;;;;;36.48;25.85;99038.58;1730648;83;21069;-62
2021/06/08 06:15:56;;;;;;;5.03;3.50;;;;;;;36.05;26.22;99037.62;1730619;83;21232;-62
2021/06/08 06:18:22;;;;;;;6.47;4.45;;;;;;;35.43;26.90;99040.70;1730581;83;20934;-61
2021/06/08 06:20:52;;;;;;;4.87;3.72;;;;;;;34.97;27.30;99037.12;1730685;83;20985;-61
2021/06/08 06:23:20;;;;;;;4.95;3.67;;;;;;;34.48;27.84;99040.80;1730836;83;21047;-61
2021/06/08 06:25:47;;;;;;;7.37;3.62;;;;;;;34.24;28.50;99047.00;1730674;81;21005;-62
2021/06/08 06:28:14;;;;;;;11.12;4.50;;;;;;;34.37;28.53;99040.41;1730628;83;21135;-62
2021/06/08 06:30:40;;;;;;;7.00;4.25;;;;;;;34.47;28.38;99041.37;1721576;83;20983;-60
2021/06/08 06:33:06;;;;;;;7.00;4.60;;;;;;;34.57;28.52;99042.97;1675158;84;21634;-61
2021/06/08 06:35:33;;;;;;;6.78;4.05;;;;;;;34.86;28.48;99035.92;1678081;85;21091;-61
2021/06/08 06:38:02;;;;;;;4.65;3.67;;;;;;;35.21;27.95;99038.59;1678123;85;21070;-61
2021/06/08 06:40:30;;;;;;;4.53;3.70;;;;;;;35.57;27.25;99039.80;1677984;85;21167;-61
2021/06/08 06:43:01;;;;;;;5.60;3.35;;;;;;;35.81;26.93;99037.05;1677959;85;21463;-61
2021/06/08 06:45:26;;;;;;;5.15;3.20;;;;;;;35.92;27.07;99034.86;1678195;84;21036;-61
2021/06/08 06:48:13;;;;;;;4.15;3.60;;;;;;;35.93;27.15;99037.02;1678172;85;21517;-61
2021/06/08 06:50:25;;;;;;;3.65;3.00;;;;;;;36.07;26.39;99031.16;1676163;84;21021;-60
2021/06/08 06:52:55;;;;;;;5.40;3.33;;;;;;;35.90;26.52;99034.38;1703721;83;21154;-60
2021/06/08 06:55:19;;;;;;;4.67;2.92;;;;;;;35.97;26.74;99035.77;1730465;83;20982;-61
2021/06/08 06:57:46;;;;;;;4.50;2.50;;;;;;;36.26;26.24;99034.94;1730863;83;21006;-61
2021/06/08 07:00:15;;;;;;;4.53;2.87;;;;;;;36.49;25.45;99031.90;1725944;81;21057;-60
2021/06/08 07:02:41;;;;;;;4.12;2.52;;;;;;;36.58;25.46;99035.11;1714557;81;21057;-61
2021/06/08 07:05:11;;;;;;;12.68;8.23;;;;;;;36.84;25.43;99029.91;1701432;81;21148;-58
2021/06/08 07:07:38;;;;;;;7.85;6.60;;;;;;;37.11;25.36;99028.50;1701168;81;20950;-63
2021/06/08 07:10:08;;;;;;;4.30;3.90;;;;;;;37.52;24.94;99029.97;1701329;81;21001;-64
2021/06/08 07:12:34;;;;;;;4.67;3.70;;;;;;;37.97;24.09;99021.17;1701559;81;21120;-63
2021/06/08 07:15:00;;;;;;;4.10;2.70;;;;;;;38.31;23.57;99016.78;1701355;81;21068;-69
2021/06/08 07:17:26;;;;;;;3.00;2.10;;;;;;;38.68;22.88;99019.35;1701288;81;21869;-65
2021/06/08 07:19:55;;;;;;;3.65;2.25;;;;;;;39.08;21.99;99019.55;1701500;81;20902;-63
2021/06/08 07:22:21;;;;;;;3.05;1.82;;;;;;;39.17;21.95;99023.68;1715695;83;21018;-62
2021/06/08 07:24:47;;;;;;;3.08;2.00;;;;;;;39.38;21.36;99016.31;1727773;81;20998;-65
2021/06/08 07:27:14;;;;;;;4.85;2.22;;;;;;;39.44;21.46;99014.26;1720941;83;21512;-65
2021/06/08 07:29:43;;;;;;;2.55;2.05;;;;;;;39.83;21.58;99021.86;1728335;83;21796;-63
2021/06/08 07:32:39;;;;;;;3.22;1.85;;;;;;;40.23;21.24;99017.69;1721518;83;21595;-63
2021/06/08 07:35:15;;;;;;;2.98;2.25;;;;;;;40.45;20.86;99018.97;1707050;82;21464;-62
2021/06/08 07:37:49;;;;;;;7.37;4.33;;;;;;;40.73;20.13;99021.31;1723558;83;21046;-62
2021/06/08 07:40:26;;;;;;;8.63;5.17;;;;;;;40.81;19.64;99016.61;1728837;83;20946;-63
2021/06/08 07:42:56;;;;;;;6.72;4.20;;;;;;;41.02;19.66;99026.05;1727301;83;21250;-63
2021/06/08 07:45:33;;;;;;;5.08;3.00;;;;;;;41.20;19.32;99020.05;1715803;81;20985;-62
2021/06/08 07:48:00;;;;;;;4.40;2.30;;;;;;;41.16;19.21;99019.22;1725715;83;21076;-62
2021/06/08 07:50:34;;;;;;;2.70;2.02;;;;;;;40.75;19.44;99017.57;1726897;83;38687;-62
2021/06/08 07:53:02;;;;;;;5.75;1.95;;;;;;;40.59;19.71;99026.73;1727361;83;21524;-63
2021/06/08 07:55:31;;;;;;;4.28;2.52;;;;;;;40.54;19.71;99022.31;1728744;83;21140;-63
2021/06/08 07:57:57;;;;;;;4.25;2.65;;;;;;;40.43;20.06;99020.53;1727908;83;21052;-63
2021/06/08 08:00:24;;;;;;;7.53;4.22;;;;;;;40.59;20.16;99027.55;1730027;83;21179;-64
2021/06/08 08:02:53;;;;;;;6.03;4.05;;;;;;;40.74;19.96;99026.30;1688602;84;20930;-64
2021/06/08 08:05:22;;;;;;;3.40;2.90;;;;;;;40.76;20.14;99024.73;1673376;83;21113;-65
2021/06/08 08:07:49;;;;;;;5.75;2.20;;;;;;;40.53;19.98;99022.67;1720205;81;21170;-61
2021/06/08 08:10:15;;;;;;;3.47;1.62;;;;;;;40.29;20.42;99018.94;1727700;83;21044;-66
2021/06/08 08:12:42;;;;;;;2.58;1.40;;;;;;;40.27;20.31;99024.09;1689742;84;21077;-62
2021/06/08 08:15:10;;;;;;;3.27;1.77;;;;;;;40.00;20.33;99025.48;1676850;85;21565;-65
2021/06/08 08:17:38;;;;;;;7.08;1.87;;;;;;;39.81;20.57;99021.44;1677261;85;21023;-65
2021/06/08 08:20:07;;;;;;;3.55;2.00;;;;;;;39.78;20.71;99022.77;1666862;82;21822;-64
2021/06/08 08:22:34;;;;;;;5.58;2.42;;;;;;;39.96;21.09;99021.05;1664608;83;21510;-65
2021/06/08 08:25:00;;;;;;;3.15;2.05;;;;;;;40.17;20.83;99020.58;1650035;83;21003;-65
2021/06/08 08:27:27;;;;;;;5.05;2.58;;;;;;;40.18;20.68;99020.19;1664809;85;21074;-59
2021/06/08 08:29:53;;;;;;;7.17;2.77;;;;;;;40.12;21.09;99015.34;1670756;85;21102;-61
2021/06/08 08:32:19;;;;;;;3.70;2.25;;;;;;;40.12;21.19;99016.73;1675276;85;21120;-57
2021/06/08 08:34:46;;;;;;;3.55;1.45;;;;;;;40.27;20.76;99015.73;1670079;85;21134;-56
2021/06/08 08:37:12;;;;;;;2.10;1.15;;;;;;;40.18;20.35;99014.61;1669639;85;20951;-56
2021/06/08 08:39:38;;;;;;;2.65;1.60;;;;;;;40.12;20.28;99011.16;1648416;84;21068;-61
2021/06/08 08:42:06;;;;;;;2.80;1.62;;;;;;;40.14;20.46;99011.58;1662343;84;20971;-62
2021/06/08 08:44:32;;;;;;;6.00;5.15;;;;;;;39.98;20.16;99011.14;1672193;85;21146;-61
2021/06/08 08:46:58;;;;;;;2.58;2.20;;;;;;;39.75;20.47;99015.97;1668000;84;21014;-62
2021/06/08 08:49:27;;;;;;;3.67;1.90;;;;;;;39.64;20.40;99013.59;1670433;85;20984;-61
2021/06/08 08:51:54;;;;;;;1.77;1.67;;;;;;;39.48;20.60;99014.30;1673304;85;21498;-55
2021/06/08 08:54:20;;;;;;;6.05;1.60;;;;;;;39.59;20.67;99017.25;1668159;85;21138;-54
2021/06/08 08:56:47;;;;;;;1.90;1.75;;;;;;;39.77;20.51;99012.80;1660170;85;21063;-62
2021/06/08 08:59:15;;;;;;;2.20;1.80;;;;;;;39.70;20.21;99019.08;1671543;85;21489;-57
2021/06/08 09:01:45;;;;;;;3.92;1.70;;;;;;;39.66;19.93;99011.23;1674436;85;21527;-59
2021/06/08 09:04:12;;;;;;;15.32;13.70;;;;;;;39.83;20.19;99009.33;1673883;85;21015;-59
2021/06/08 09:06:38;;;;;;;4.22;3.90;;;;;;;40.04;20.26;99008.28;1675491;85;21516;-59
2021/06/08 09:09:07;;;;;;;2.55;2.20;;;;;;;40.16;19.97;99009.20;1663637;85;21122;-57
2021/06/08 09:11:38;;;;;;;2.42;2.10;;;;;;;39.89;20.19;99009.20;1648415;84;21632;-57
2021/06/08 09:14:05;;;;;;;3.00;1.80;;;;;;;39.41;20.52;99007.23;1648333;84;21541;-58
2021/06/08 09:16:32;;;;;;;1.98;1.87;;;;;;;38.53;21.02;99005.54;1656537;85;21573;-59
2021/06/08 09:19:04;;;;;;;1.75;1.62;;;;;;;37.64;21.96;99013.24;1655550;84;20965;-56
2021/06/08 09:21:33;;;;;;;5.72;1.95;;;;;;;36.82;22.93;99008.08;1672001;85;21147;-56
2021/06/08 09:24:23;;;;;;;3.42;1.80;;;;;;;36.34;23.79;99007.69;1672405;84;20924;-58
2021/06/08 09:27:01;;;;;;;2.37;1.75;;;;;;;35.96;23.39;99008.66;1666374;84;21028;-60
2021/06/08 09:29:34;;;;;;;3.33;1.95;;;;;;;35.62;23.56;99009.95;1672907;85;21494;-61
2021/06/08 09:32:24;;;;;;;2.35;2.15;;;;;;;35.39;23.97;99012.11;1673683;85;21079;-62
2021/06/08 09:34:56;;;;;;;2.47;1.70;;;;;;;35.28;24.65;99011.75;1671826;85;21188;-59
2021/06/08 09:37:42;;;;;;;4.80;1.80;;;;;;;35.23;24.96;99011.98;1672721;84;21065;-59
2021/06/08 09:40:23;;;;;;;2.50;2.25;;;;;;;35.16;25.21;99012.56;1675805;85;20987;-61
2021/06/08 09:43:03;;;;;;;2.62;1.92;;;;;;;35.11;25.39;99012.78;1645661;87;21146;-57
2021/06/08 09:45:46;;;;;;;1.52;1.42;;;;;;;34.89;24.91;99002.09;1654587;85;20981;-58
2021/06/08 09:48:14;;;;;;;2.27;1.80;;;;;;;34.66;25.20;99005.02;1678014;85;21098;-61
2021/06/08 09:50:45;;;;;;;3.50;1.60;;;;;;;34.47;24.73;98997.19;1643330;87;20911;-62
2021/06/08 09:53:25;;;;;;;2.67;1.65;;;;;;;34.28;25.16;99000.22;1672207;85;21027;-59
2021/06/08 09:56:06;;;;;;;1.60;1.27;;;;;;;34.21;25.51;98999.36;1656171;84;20963;-57
2021/06/08 09:58:35;;;;;;;2.15;1.45;;;;;;;34.06;25.41;98993.89;1677234;85;20998;-57
2021/06/08 10:01:23;;;;;;;2.20;1.27;;;;;;;33.92;25.53;98992.52;1673960;85;21440;-58
2021/06/08 10:03:56;;;;;;;3.58;1.60;;;;;;;33.89;25.19;98991.80;1674684;85;21054;-61
2021/06/08 10:06:28;;;;;;;2.90;1.77;;;;;;;33.72;25.32;98991.33;1672587;85;20968;-57
2021/06/08 10:09:00;;;;;;;2.17;1.98;;;;;;;33.46;25.67;98991.44;1646712;87;21023;-56
2021/06/08 10:11:30;;;;;;;1.90;1.62;;;;;;;33.39;25.77;98988.97;1670024;84;21103;-57
2021/06/08 10:14:17;;;;;;;2.45;1.47;;;;;;;33.43;25.84;98991.28;1665120;84;21191;-62
2021/06/08 10:16:43;;;;;;;2.30;1.50;;;;;;;33.40;26.19;98985.05;1675413;85;21079;-54
2021/06/08 10:19:14;;;;;;;1.77;1.67;;;;;;;33.27;25.96;98984.73;1648625;87;21022;-58
2021/06/08 10:21:47;;;;;;;2.45;1.47;;;;;;;33.10;25.83;98991.11;1677908;85;21060;-57
2021/06/08 10:24:18;;;;;;;4.28;1.62;;;;;;;33.02;25.81;98981.45;1677830;85;21103;-60
2021/06/08 10:26:51;;;;;;;1.60;1.45;;;;;;;32.99;25.77;98978.79;1674451;84;21149;-65
2021/06/08 10:29:30;;;;;;;3.37;1.47;;;;;;;32.98;26.84;98982.11;1735821;82;20969;-64
2021/06/08 10:31:59;;;;;;;2.17;1.50;;;;;;;32.92;27.06;98973.80;1735735;82;21010;-60
2021/06/08 10:34:27;;;;;;;2.62;1.50;;;;;;;32.90;27.40;98973.89;1735029;82;21534;-66
2021/06/08 10:36:54;;;;;;;1.77;1.60;;;;;;;32.98;27.75;98973.63;1734827;82;21116;-62
2021/06/08 10:39:25;;;;;;;2.95;2.00;;;;;;;33.09;27.34;98969.38;1734053;82;21159;-59
2021/06/08 10:41:48;;;;;;;4.05;1.70;;;;;;;33.15;26.76;98965.31;1736391;82;20985;-61
2021/06/08 10:44:23;;;;;;;1.67;1.57;;;;;;;33.11;26.48;98961.62;1736007;82;21053;-60
2021/06/08 10:46:52;;;;;;;3.85;1.55;;;;;;;33.11;26.58;98964.37;1738239;82;20953;-61
2021/06/08 10:49:38;;;;;;;2.05;1.70;;;;;;;33.16;26.92;98961.43;1734248;82;21514;-62
2021/06/08 10:52:11;;;;;;;2.52;1.62;;;;;;;33.21;27.08;98957.11;1732987;81;21147;-60
2021/06/08 10:54:44;;;;;;;3.92;1.52;;;;;;;33.05;26.51;98960.17;1733789;82;20977;-64
2021/06/08 10:57:14;;;;;;;4.92;1.65;;;;;;;32.78;26.74;98959.98;1736404;82;21013;-58
2021/06/08 10:59:52;;;;;;;2.20;1.80;;;;;;;32.68;26.90;98961.70;1734526;82;21117;-60
2021/06/08 11:02:45;;;;;;;3.60;1.50;;;;;;;32.73;27.34;98967.03;1720853;82;21140;-61
2021/06/08 11:05:14;;;;;;;1.77;1.65;;;;;;;32.75;27.71;98965.57;1717495;82;21186;-60
2021/06/08 11:07:50;;;;;;;1.85;1.50;;;;;;;32.73;28.17;98971.17;1733996;81;21076;-59
2021/06/08 11:10:34;;;;;;;2.08;1.77;;;;;;;32.38;28.17;98966.27;1731512;82;20967;-58
2021/06/08 11:13:16;;;;;;;2.43;1.60;;;;;;;32.16;28.47;98960.36;1733162;82;21649;-57
2021/06/08 11:15:47;;;;;;;4.42;1.60;;;;;;;32.18;28.09;98955.34;1733517;82;20870;-53
2021/06/08 11:18:37;;;;;;;1.72;1.60;;;;;;;32.24;27.97;98951.30;1733925;82;21139;-55
2021/06/08 11:21:09;;;;;;;1.70;1.40;;;;;;;32.35;27.87;98953.16;1736370;82;21547;-54
2021/06/08 11:23:42;;;;;;;1.92;1.82;;;;;;;32.50;27.61;98940.26;1733847;82;21036;-56
2021/06/08 11:26:06;;;;;;;2.75;1.75;;;;;;;32.58;27.31;98949.10;1724439;82;20982;-55
2021/06/08 11:28:50;;;;;;;5.40;2.05;;;;;;;32.64;27.38;98954.66;1698844;83;21614;-59
2021/06/08 11:31:25;;;;;;;1.70;1.50;;;;;;;32.64;27.33;98953.88;1657375;86;21115;-59
2021/06/08 11:34:04;;;;;;;3.20;1.60;;;;;;;32.61;27.50;98955.34;1682971;85;21015;-59
2021/06/08 11:36:31;;;;;;;2.70;1.95;;;;;;;32.61;27.50;98955.34;1669631;85;21568;-59
2021/06/08 11:39:22;;;;;;;4.78;1.98;;;;;;;32.56;28.12;98951.38;1682116;85;21110;-62
2021/06/08 11:42:00;;;;;;;2.10;1.67;;;;;;;32.31;28.58;98954.36;1692594;84;21008;-60
2021/06/08 11:44:27;;;;;;;4.60;2.58;;;;;;;32.21;28.43;98948.38;1712148;83;21905;-60
2021/06/08 11:47:04;;;;;;;2.47;1.80;;;;;;;31.98;28.49;98948.27;1713908;83;20985;-60